sensor_id;sensor_type;location;lat;lon;timestamp;P1;durP1;ratioP1;P2;durP2;ratioP2
61673;SDS011;47573;43.832;5.974;2022-10-17T00:04:03;498.15;;;361.85;;
61673;SDS011;47573;43.832;5.974;2022-10-17T00:09:04;479.00;;;347.45;;
61673;SDS011;47573;43.832;5.974;2022-10-17T00:14:06;467.15;;;335.85;;
61673;SDS011;47573;43.832;5.974;2022-10-17T00:19:06;466.23;;;335.30;;
61673;SDS011;47573;43.832;5.974;2022-10-17T00:24:07;465.15;;;333.00;;
61673;SDS011;47573;43.832;5.974;2022-10-17T00:29:09;469.80;;;335.00;;
61673;SDS011;47573;43.832;5.974;2022-10-17T00:34:09;465.70;;;332.92;;
61673;SDS011;47573;43.832;5.974;2022-10-17T00:39:10;464.10;;;327.50;;
61673;SDS011;47573;43.832;5.974;2022-10-17T00:49:46;448.85;;;321.95;;
61673;SDS011;47573;43.832;5.974;2022-10-17T00:54:48;447.25;;;319.88;;
61673;SDS011;47573;43.832;5.974;2022-10-17T00:59:53;442.00;;;317.70;;
61673;SDS011;47573;43.832;5.974;2022-10-17T01:04:58;441.63;;;315.52;;
61673;SDS011;47573;43.832;5.974;2022-10-17T01:09:59;434.98;;;309.75;;
61673;SDS011;47573;43.832;5.974;2022-10-17T01:15:06;430.00;;;305.17;;
61673;SDS011;47573;43.832;5.974;2022-10-17T01:20:20;423.83;;;305.15;;
61673;SDS011;47573;43.832;5.974;2022-10-17T01:25:53;417.30;;;298.95;;
61673;SDS011;47573;43.832;5.974;2022-10-17T01:31:03;419.45;;;300.23;;
61673;SDS011;47573;43.832;5.974;2022-10-17T01:36:09;418.08;;;293.65;;
61673;SDS011;47573;43.832;5.974;2022-10-17T01:41:15;402.55;;;289.65;;
61673;SDS011;47573;43.832;5.974;2022-10-17T01:46:25;401.85;;;289.10;;
61673;SDS011;47573;43.832;5.974;2022-10-17T01:51:32;405.35;;;284.20;;
61673;SDS011;47573;43.832;5.974;2022-10-17T01:56:37;389.60;;;275.42;;
61673;SDS011;47573;43.832;5.974;2022-10-17T02:01:42;380.73;;;272.40;;
61673;SDS011;47573;43.832;5.974;2022-10-17T02:11:48;381.02;;;268.60;;
61673;SDS011;47573;43.832;5.974;2022-10-17T02:16:56;368.20;;;260.98;;
61673;SDS011;47573;43.832;5.974;2022-10-17T02:22:12;364.17;;;259.73;;
61673;SDS011;47573;43.832;5.974;2022-10-17T02:27:22;362.35;;;254.10;;
61673;SDS011;47573;43.832;5.974;2022-10-17T02:32:35;358.15;;;253.43;;
61673;SDS011;47573;43.832;5.974;2022-10-17T02:37:42;349.90;;;247.15;;
61673;SDS011;47573;43.832;5.974;2022-10-17T02:42:46;344.48;;;241.65;;
61673;SDS011;47573;43.832;5.974;2022-10-17T02:47:52;338.52;;;236.98;;
61673;SDS011;47573;43.832;5.974;2022-10-17T02:52:59;340.20;;;239.52;;
61673;SDS011;47573;43.832;5.974;2022-10-17T02:58:06;333.73;;;232.27;;
61673;SDS011;47573;43.832;5.974;2022-10-17T03:03:19;330.50;;;235.27;;
61673;SDS011;47573;43.832;5.974;2022-10-17T03:08:21;326.75;;;230.20;;
61673;SDS011;47573;43.832;5.974;2022-10-17T03:13:22;318.40;;;224.38;;
61673;SDS011;47573;43.832;5.974;2022-10-17T03:18:24;321.15;;;223.48;;
61673;SDS011;47573;43.832;5.974;2022-10-17T03:23:25;320.15;;;225.35;;
61673;SDS011;47573;43.832;5.974;2022-10-17T03:28:25;314.05;;;218.60;;
61673;SDS011;47573;43.832;5.974;2022-10-17T03:33:27;310.90;;;215.60;;
61673;SDS011;47573;43.832;5.974;2022-10-17T03:38:28;304.92;;;213.15;;
61673;SDS011;47573;43.832;5.974;2022-10-17T03:43:28;303.42;;;211.75;;
61673;SDS011;47573;43.832;5.974;2022-10-17T03:48:31;293.92;;;203.57;;
61673;SDS011;47573;43.832;5.974;2022-10-17T03:53:32;300.30;;;209.25;;
61673;SDS011;47573;43.832;5.974;2022-10-17T03:58:33;297.63;;;203.43;;
61673;SDS011;47573;43.832;5.974;2022-10-17T04:03:35;289.17;;;198.05;;
61673;SDS011;47573;43.832;5.974;2022-10-17T04:08:35;287.20;;;198.50;;
61673;SDS011;47573;43.832;5.974;2022-10-17T04:13:36;278.83;;;191.75;;
61673;SDS011;47573;43.832;5.974;2022-10-17T04:18:38;276.77;;;189.32;;
61673;SDS011;47573;43.832;5.974;2022-10-17T04:23:39;271.83;;;185.88;;
61673;SDS011;47573;43.832;5.974;2022-10-17T04:28:39;277.42;;;188.27;;
61673;SDS011;47573;43.832;5.974;2022-10-17T04:33:41;264.38;;;180.07;;
61673;SDS011;47573;43.832;5.974;2022-10-17T04:38:42;259.80;;;173.85;;
61673;SDS011;47573;43.832;5.974;2022-10-17T04:43:43;265.30;;;173.65;;
61673;SDS011;47573;43.832;5.974;2022-10-17T04:48:45;249.90;;;167.40;;
61673;SDS011;47573;43.832;5.974;2022-10-17T04:53:46;250.07;;;164.23;;
61673;SDS011;47573;43.832;5.974;2022-10-17T04:58:47;247.20;;;163.35;;
61673;SDS011;47573;43.832;5.974;2022-10-17T05:03:49;243.77;;;159.57;;
61673;SDS011;47573;43.832;5.974;2022-10-17T05:08:50;237.80;;;154.77;;
61673;SDS011;47573;43.832;5.974;2022-10-17T05:13:51;235.63;;;154.32;;
61673;SDS011;47573;43.832;5.974;2022-10-17T05:18:54;232.40;;;152.60;;
61673;SDS011;47573;43.832;5.974;2022-10-17T05:23:56;225.68;;;149.20;;
61673;SDS011;47573;43.832;5.974;2022-10-17T05:28:58;224.23;;;147.18;;
61673;SDS011;47573;43.832;5.974;2022-10-17T05:34:00;220.80;;;145.20;;
61673;SDS011;47573;43.832;5.974;2022-10-17T05:39:01;222.02;;;143.27;;
61673;SDS011;47573;43.832;5.974;2022-10-17T05:44:02;214.48;;;140.48;;
61673;SDS011;47573;43.832;5.974;2022-10-17T05:49:04;217.45;;;140.60;;
61673;SDS011;47573;43.832;5.974;2022-10-17T05:54:05;212.68;;;137.82;;
61673;SDS011;47573;43.832;5.974;2022-10-17T05:59:06;211.65;;;138.82;;
61673;SDS011;47573;43.832;5.974;2022-10-17T06:04:08;204.23;;;136.20;;
61673;SDS011;47573;43.832;5.974;2022-10-17T06:09:08;206.18;;;133.35;;
61673;SDS011;47573;43.832;5.974;2022-10-17T06:14:09;207.45;;;133.07;;
61673;SDS011;47573;43.832;5.974;2022-10-17T06:19:11;193.57;;;127.95;;
61673;SDS011;47573;43.832;5.974;2022-10-17T06:24:11;197.85;;;130.38;;
61673;SDS011;47573;43.832;5.974;2022-10-17T06:29:12;187.70;;;124.47;;
61673;SDS011;47573;43.832;5.974;2022-10-17T06:34:14;184.73;;;123.63;;
61673;SDS011;47573;43.832;5.974;2022-10-17T06:39:14;185.10;;;118.82;;
61673;SDS011;47573;43.832;5.974;2022-10-17T06:44:15;132.07;;;85.47;;
61673;SDS011;47573;43.832;5.974;2022-10-17T06:49:16;248.73;;;104.15;;
61673;SDS011;47573;43.832;5.974;2022-10-17T06:54:17;289.10;;;105.07;;
61673;SDS011;47573;43.832;5.974;2022-10-17T06:59:17;88.28;;;46.22;;
61673;SDS011;47573;43.832;5.974;2022-10-17T07:04:19;467.20;;;169.13;;
61673;SDS011;47573;43.832;5.974;2022-10-17T07:09:20;349.60;;;126.68;;
61673;SDS011;47573;43.832;5.974;2022-10-17T07:14:20;130.43;;;54.15;;
61673;SDS011;47573;43.832;5.974;2022-10-17T07:19:22;60.67;;;37.65;;
61673;SDS011;47573;43.832;5.974;2022-10-17T07:24:23;54.95;;;34.28;;
61673;SDS011;47573;43.832;5.974;2022-10-17T07:29:23;54.75;;;36.15;;
61673;SDS011;47573;43.832;5.974;2022-10-17T07:34:25;320.08;;;130.30;;
61673;SDS011;47573;43.832;5.974;2022-10-17T07:39:25;150.02;;;59.58;;
61673;SDS011;47573;43.832;5.974;2022-10-17T07:44:26;54.22;;;31.17;;
61673;SDS011;47573;43.832;5.974;2022-10-17T07:49:28;87.70;;;38.75;;
61673;SDS011;47573;43.832;5.974;2022-10-17T07:54:29;463.45;;;169.98;;
61673;SDS011;47573;43.832;5.974;2022-10-17T07:59:29;80.05;;;35.40;;
61673;SDS011;47573;43.832;5.974;2022-10-17T08:04:33;49.75;;;29.20;;
61673;SDS011;47573;43.832;5.974;2022-10-17T08:09:33;49.15;;;32.00;;
61673;SDS011;47573;43.832;5.974;2022-10-17T08:14:34;52.03;;;33.63;;
61673;SDS011;47573;43.832;5.974;2022-10-17T08:19:38;53.70;;;34.25;;
61673;SDS011;47573;43.832;5.974;2022-10-17T08:24:38;48.60;;;33.70;;
61673;SDS011;47573;43.832;5.974;2022-10-17T08:29:39;51.55;;;33.85;;
61673;SDS011;47573;43.832;5.974;2022-10-17T08:34:41;51.03;;;31.45;;
61673;SDS011;47573;43.832;5.974;2022-10-17T08:39:42;52.05;;;32.88;;
61673;SDS011;47573;43.832;5.974;2022-10-17T08:44:45;49.17;;;32.28;;
61673;SDS011;47573;43.832;5.974;2022-10-17T08:49:56;49.50;;;31.73;;
61673;SDS011;47573;43.832;5.974;2022-10-17T08:55:00;49.42;;;31.90;;
61673;SDS011;47573;43.832;5.974;2022-10-17T09:00:00;46.97;;;31.58;;
61673;SDS011;47573;43.832;5.974;2022-10-17T09:05:07;47.63;;;30.75;;
61673;SDS011;47573;43.832;5.974;2022-10-17T09:10:28;46.08;;;30.95;;
61673;SDS011;47573;43.832;5.974;2022-10-17T09:15:40;43.17;;;29.60;;
61673;SDS011;47573;43.832;5.974;2022-10-17T09:20:48;43.13;;;29.20;;
61673;SDS011;47573;43.832;5.974;2022-10-17T09:25:53;43.53;;;29.77;;
61673;SDS011;47573;43.832;5.974;2022-10-17T09:30:55;48.40;;;31.33;;
61673;SDS011;47573;43.832;5.974;2022-10-17T09:36:01;42.70;;;29.83;;
61673;SDS011;47573;43.832;5.974;2022-10-17T09:41:03;42.67;;;29.23;;
61673;SDS011;47573;43.832;5.974;2022-10-17T09:46:14;44.13;;;29.60;;
61673;SDS011;47573;43.832;5.974;2022-10-17T09:51:20;42.60;;;29.20;;
61673;SDS011;47573;43.832;5.974;2022-10-17T09:56:22;44.83;;;29.73;;
61673;SDS011;47573;43.832;5.974;2022-10-17T10:01:23;46.08;;;30.27;;
61673;SDS011;47573;43.832;5.974;2022-10-17T10:06:27;42.53;;;28.08;;
61673;SDS011;47573;43.832;5.974;2022-10-17T10:11:43;40.95;;;27.85;;
61673;SDS011;47573;43.832;5.974;2022-10-17T10:16:45;39.25;;;27.65;;
61673;SDS011;47573;43.832;5.974;2022-10-17T10:21:53;39.45;;;27.30;;
61673;SDS011;47573;43.832;5.974;2022-10-17T10:26:55;41.90;;;28.08;;
61673;SDS011;47573;43.832;5.974;2022-10-17T10:32:06;41.60;;;27.02;;
61673;SDS011;47573;43.832;5.974;2022-10-17T10:37:15;39.95;;;26.73;;
61673;SDS011;47573;43.832;5.974;2022-10-17T10:42:19;39.17;;;26.52;;
61673;SDS011;47573;43.832;5.974;2022-10-17T10:47:23;39.20;;;26.73;;
61673;SDS011;47573;43.832;5.974;2022-10-17T10:52:28;37.28;;;26.33;;
61673;SDS011;47573;43.832;5.974;2022-10-17T10:57:32;35.83;;;24.88;;
61673;SDS011;47573;43.832;5.974;2022-10-17T11:02:39;33.87;;;24.90;;
61673;SDS011;47573;43.832;5.974;2022-10-17T11:07:48;35.75;;;25.65;;
61673;SDS011;47573;43.832;5.974;2022-10-17T11:12:53;41.03;;;25.52;;
61673;SDS011;47573;43.832;5.974;2022-10-17T11:17:59;38.70;;;25.60;;
61673;SDS011;47573;43.832;5.974;2022-10-17T11:23:09;37.73;;;25.27;;
61673;SDS011;47573;43.832;5.974;2022-10-17T11:28:15;32.33;;;23.20;;
61673;SDS011;47573;43.832;5.974;2022-10-17T11:33:20;34.03;;;23.95;;
61673;SDS011;47573;43.832;5.974;2022-10-17T11:38:29;33.85;;;22.60;;
61673;SDS011;47573;43.832;5.974;2022-10-17T11:43:39;33.97;;;23.38;;
61673;SDS011;47573;43.832;5.974;2022-10-17T11:48:48;32.95;;;23.00;;
61673;SDS011;47573;43.832;5.974;2022-10-17T11:59:13;30.67;;;21.92;;
61673;SDS011;47573;43.832;5.974;2022-10-17T12:04:46;30.60;;;21.80;;
61673;SDS011;47573;43.832;5.974;2022-10-17T12:09:58;29.67;;;22.13;;
61673;SDS011;47573;43.832;5.974;2022-10-17T12:20:33;29.77;;;21.33;;
61673;SDS011;47573;43.832;5.974;2022-10-17T12:25:36;27.00;;;20.02;;
61673;SDS011;47573;43.832;5.974;2022-10-17T12:30:48;28.63;;;20.70;;
61673;SDS011;47573;43.832;5.974;2022-10-17T12:35:50;27.95;;;20.48;;
61673;SDS011;47573;43.832;5.974;2022-10-17T12:41:12;28.98;;;20.83;;
61673;SDS011;47573;43.832;5.974;2022-10-17T12:57:19;26.42;;;19.10;;
61673;SDS011;47573;43.832;5.974;2022-10-17T13:02:23;25.48;;;18.50;;
61673;SDS011;47573;43.832;5.974;2022-10-17T13:07:26;23.33;;;15.30;;
61673;SDS011;47573;43.832;5.974;2022-10-17T13:12:29;19.55;;;14.27;;
61673;SDS011;47573;43.832;5.974;2022-10-17T13:17:33;14.23;;;11.13;;
61673;SDS011;47573;43.832;5.974;2022-10-17T13:22:34;17.98;;;13.80;;
61673;SDS011;47573;43.832;5.974;2022-10-17T13:27:44;171.90;;;59.15;;
61673;SDS011;47573;43.832;5.974;2022-10-17T13:32:45;17.83;;;12.50;;
61673;SDS011;47573;43.832;5.974;2022-10-17T13:37:46;15.35;;;10.77;;
61673;SDS011;47573;43.832;5.974;2022-10-17T13:42:49;12.63;;;9.68;;
61673;SDS011;47573;43.832;5.974;2022-10-17T13:47:50;15.90;;;10.10;;
61673;SDS011;47573;43.832;5.974;2022-10-17T13:58:09;11.88;;;8.88;;
61673;SDS011;47573;43.832;5.974;2022-10-17T14:03:14;11.35;;;8.20;;
61673;SDS011;47573;43.832;5.974;2022-10-17T14:08:14;12.70;;;8.93;;
61673;SDS011;47573;43.832;5.974;2022-10-17T14:13:20;12.82;;;9.25;;
61673;SDS011;47573;43.832;5.974;2022-10-17T14:18:23;13.18;;;9.00;;
61673;SDS011;47573;43.832;5.974;2022-10-17T14:23:29;11.93;;;9.23;;
61673;SDS011;47573;43.832;5.974;2022-10-17T14:28:42;13.35;;;9.13;;
61673;SDS011;47573;43.832;5.974;2022-10-17T14:33:45;13.88;;;9.50;;
61673;SDS011;47573;43.832;5.974;2022-10-17T14:38:48;11.77;;;8.93;;
61673;SDS011;47573;43.832;5.974;2022-10-17T14:43:53;13.73;;;8.82;;
61673;SDS011;47573;43.832;5.974;2022-10-17T14:48:56;16.52;;;9.43;;
61673;SDS011;47573;43.832;5.974;2022-10-17T14:54:03;13.30;;;9.43;;
61673;SDS011;47573;43.832;5.974;2022-10-17T14:59:17;12.38;;;9.35;;
61673;SDS011;47573;43.832;5.974;2022-10-17T15:04:18;12.52;;;9.55;;
61673;SDS011;47573;43.832;5.974;2022-10-17T15:09:19;14.00;;;10.18;;
61673;SDS011;47573;43.832;5.974;2022-10-17T15:14:21;15.80;;;10.43;;
61673;SDS011;47573;43.832;5.974;2022-10-17T15:19:21;14.07;;;9.88;;
61673;SDS011;47573;43.832;5.974;2022-10-17T15:24:22;13.23;;;10.20;;
61673;SDS011;47573;43.832;5.974;2022-10-17T15:29:24;13.45;;;9.98;;
61673;SDS011;47573;43.832;5.974;2022-10-17T15:34:25;18.95;;;12.82;;
61673;SDS011;47573;43.832;5.974;2022-10-17T15:39:26;33.95;;;22.60;;
61673;SDS011;47573;43.832;5.974;2022-10-17T15:44:27;36.55;;;24.20;;
61673;SDS011;47573;43.832;5.974;2022-10-17T15:49:28;66.82;;;45.13;;
61673;SDS011;47573;43.832;5.974;2022-10-17T15:54:28;76.00;;;49.83;;
61673;SDS011;47573;43.832;5.974;2022-10-17T15:59:32;76.05;;;50.60;;
61673;SDS011;47573;43.832;5.974;2022-10-17T16:04:34;74.15;;;50.42;;
61673;SDS011;47573;43.832;5.974;2022-10-17T16:09:34;76.93;;;50.00;;
61673;SDS011;47573;43.832;5.974;2022-10-17T16:14:37;75.43;;;49.47;;
61673;SDS011;47573;43.832;5.974;2022-10-17T16:19:37;72.57;;;48.60;;
61673;SDS011;47573;43.832;5.974;2022-10-17T16:24:38;75.70;;;49.17;;
61673;SDS011;47573;43.832;5.974;2022-10-17T16:29:39;72.75;;;48.92;;
61673;SDS011;47573;43.832;5.974;2022-10-17T16:34:40;80.90;;;52.15;;
61673;SDS011;47573;43.832;5.974;2022-10-17T16:39:40;76.30;;;48.85;;
61673;SDS011;47573;43.832;5.974;2022-10-17T16:44:42;77.18;;;50.85;;
61673;SDS011;47573;43.832;5.974;2022-10-17T16:49:43;78.47;;;48.67;;
61673;SDS011;47573;43.832;5.974;2022-10-17T16:54:44;77.97;;;49.22;;
61673;SDS011;47573;43.832;5.974;2022-10-17T16:59:45;75.85;;;49.30;;
61673;SDS011;47573;43.832;5.974;2022-10-17T17:04:46;77.10;;;49.25;;
61673;SDS011;47573;43.832;5.974;2022-10-17T17:09:46;78.95;;;50.28;;
61673;SDS011;47573;43.832;5.974;2022-10-17T17:14:48;95.18;;;61.20;;
61673;SDS011;47573;43.832;5.974;2022-10-17T17:19:49;151.05;;;99.63;;
61673;SDS011;47573;43.832;5.974;2022-10-17T17:24:50;151.88;;;100.20;;
61673;SDS011;47573;43.832;5.974;2022-10-17T17:29:52;140.27;;;89.93;;
61673;SDS011;47573;43.832;5.974;2022-10-17T17:34:52;138.18;;;92.25;;
61673;SDS011;47573;43.832;5.974;2022-10-17T17:39:53;136.30;;;90.30;;
61673;SDS011;47573;43.832;5.974;2022-10-17T17:44:55;139.40;;;91.35;;
61673;SDS011;47573;43.832;5.974;2022-10-17T17:49:55;895.03;;;484.33;;
61673;SDS011;47573;43.832;5.974;2022-10-17T17:54:56;183.77;;;117.85;;
61673;SDS011;47573;43.832;5.974;2022-10-17T17:59:57;232.98;;;152.27;;
61673;SDS011;47573;43.832;5.974;2022-10-17T18:04:58;226.80;;;150.93;;
61673;SDS011;47573;43.832;5.974;2022-10-17T18:09:58;217.80;;;143.48;;
61673;SDS011;47573;43.832;5.974;2022-10-17T18:15:00;219.98;;;144.63;;
61673;SDS011;47573;43.832;5.974;2022-10-17T18:20:01;228.63;;;146.02;;
61673;SDS011;47573;43.832;5.974;2022-10-17T18:25:02;220.50;;;141.50;;
61673;SDS011;47573;43.832;5.974;2022-10-17T18:30:05;234.45;;;144.85;;
61673;SDS011;47573;43.832;5.974;2022-10-17T18:35:06;226.65;;;149.43;;
61673;SDS011;47573;43.832;5.974;2022-10-17T18:40:07;245.10;;;159.40;;
61673;SDS011;47573;43.832;5.974;2022-10-17T18:45:10;249.27;;;162.02;;
61673;SDS011;47573;43.832;5.974;2022-10-17T18:50:10;259.65;;;170.77;;
61673;SDS011;47573;43.832;5.974;2022-10-17T18:55:11;276.13;;;183.77;;
61673;SDS011;47573;43.832;5.974;2022-10-17T19:00:13;272.13;;;183.30;;
61673;SDS011;47573;43.832;5.974;2022-10-17T19:05:14;267.80;;;182.57;;
61673;SDS011;47573;43.832;5.974;2022-10-17T19:10:14;278.00;;;186.93;;
61673;SDS011;47573;43.832;5.974;2022-10-17T19:15:16;282.83;;;187.80;;
61673;SDS011;47573;43.832;5.974;2022-10-17T19:20:17;272.70;;;188.02;;
61673;SDS011;47573;43.832;5.974;2022-10-17T19:25:17;281.10;;;192.80;;
61673;SDS011;47573;43.832;5.974;2022-10-17T19:30:19;289.65;;;196.50;;
61673;SDS011;47573;43.832;5.974;2022-10-17T19:35:19;284.45;;;194.27;;
61673;SDS011;47573;43.832;5.974;2022-10-17T19:40:20;305.85;;;206.05;;
61673;SDS011;47573;43.832;5.974;2022-10-17T19:45:22;288.08;;;197.95;;
61673;SDS011;47573;43.832;5.974;2022-10-17T19:50:22;294.02;;;193.43;;
61673;SDS011;47573;43.832;5.974;2022-10-17T19:55:23;284.35;;;193.38;;
61673;SDS011;47573;43.832;5.974;2022-10-17T20:00:25;283.60;;;191.07;;
61673;SDS011;47573;43.832;5.974;2022-10-17T20:05:25;282.67;;;187.77;;
61673;SDS011;47573;43.832;5.974;2022-10-17T20:10:26;286.38;;;190.18;;
61673;SDS011;47573;43.832;5.974;2022-10-17T20:15:27;286.95;;;190.75;;
61673;SDS011;47573;43.832;5.974;2022-10-17T20:20:28;309.40;;;206.35;;
61673;SDS011;47573;43.832;5.974;2022-10-17T20:25:28;326.60;;;218.95;;
61673;SDS011;47573;43.832;5.974;2022-10-17T20:30:30;320.92;;;216.60;;
61673;SDS011;47573;43.832;5.974;2022-10-17T20:35:31;325.77;;;215.65;;
61673;SDS011;47573;43.832;5.974;2022-10-17T20:40:32;313.70;;;211.88;;
61673;SDS011;47573;43.832;5.974;2022-10-17T20:45:35;317.83;;;211.18;;
61673;SDS011;47573;43.832;5.974;2022-10-17T20:55:37;311.02;;;205.13;;
61673;SDS011;47573;43.832;5.974;2022-10-17T21:00:39;310.50;;;206.15;;
61673;SDS011;47573;43.832;5.974;2022-10-17T21:05:40;314.17;;;208.70;;
61673;SDS011;47573;43.832;5.974;2022-10-17T21:10:41;334.83;;;221.70;;
61673;SDS011;47573;43.832;5.974;2022-10-17T21:15:43;338.73;;;228.55;;
61673;SDS011;47573;43.832;5.974;2022-10-17T21:20:43;333.88;;;225.52;;
61673;SDS011;47573;43.832;5.974;2022-10-17T21:25:44;340.25;;;231.00;;
61673;SDS011;47573;43.832;5.974;2022-10-17T21:30:46;347.40;;;232.85;;
61673;SDS011;47573;43.832;5.974;2022-10-17T21:35:46;344.23;;;233.35;;
61673;SDS011;47573;43.832;5.974;2022-10-17T21:40:47;336.33;;;225.95;;
61673;SDS011;47573;43.832;5.974;2022-10-17T21:45:49;339.02;;;226.02;;
61673;SDS011;47573;43.832;5.974;2022-10-17T21:50:54;353.67;;;240.00;;
61673;SDS011;47573;43.832;5.974;2022-10-17T21:55:57;336.02;;;227.82;;
61673;SDS011;47573;43.832;5.974;2022-10-17T22:01:03;354.33;;;243.48;;
61673;SDS011;47573;43.832;5.974;2022-10-17T22:06:06;357.80;;;248.20;;
61673;SDS011;47573;43.832;5.974;2022-10-17T22:11:08;364.95;;;250.02;;
61673;SDS011;47573;43.832;5.974;2022-10-17T22:16:13;366.27;;;250.98;;
61673;SDS011;47573;43.832;5.974;2022-10-17T22:21:15;366.73;;;251.70;;
61673;SDS011;47573;43.832;5.974;2022-10-17T22:26:17;377.98;;;256.65;;
61673;SDS011;47573;43.832;5.974;2022-10-17T22:31:19;383.98;;;272.02;;
61673;SDS011;47573;43.832;5.974;2022-10-17T22:36:19;398.33;;;277.52;;
61673;SDS011;47573;43.832;5.974;2022-10-17T22:41:20;390.88;;;274.95;;
61673;SDS011;47573;43.832;5.974;2022-10-17T22:46:22;398.90;;;273.90;;
61673;SDS011;47573;43.832;5.974;2022-10-17T22:51:22;385.60;;;268.92;;
61673;SDS011;47573;43.832;5.974;2022-10-17T22:56:23;389.17;;;273.27;;
61673;SDS011;47573;43.832;5.974;2022-10-17T23:01:25;390.50;;;273.33;;
61673;SDS011;47573;43.832;5.974;2022-10-17T23:06:25;398.98;;;273.77;;
61673;SDS011;47573;43.832;5.974;2022-10-17T23:11:26;387.98;;;269.35;;
61673;SDS011;47573;43.832;5.974;2022-10-17T23:16:28;398.33;;;281.85;;
61673;SDS011;47573;43.832;5.974;2022-10-17T23:21:28;412.20;;;289.70;;
61673;SDS011;47573;43.832;5.974;2022-10-17T23:26:29;410.70;;;286.50;;
61673;SDS011;47573;43.832;5.974;2022-10-17T23:31:30;410.70;;;284.95;;
61673;SDS011;47573;43.832;5.974;2022-10-17T23:36:31;396.75;;;276.85;;
61673;SDS011;47573;43.832;5.974;2022-10-17T23:41:32;401.92;;;279.17;;
61673;SDS011;47573;43.832;5.974;2022-10-17T23:46:34;386.67;;;268.65;;
61673;SDS011;47573;43.832;5.974;2022-10-17T23:51:34;382.73;;;270.27;;
61673;SDS011;47573;43.832;5.974;2022-10-17T23:56:34;393.10;;;266.17;;
